Time;durP1;ratioP1;P1;durP2;ratioP2;P2;SDS_P1;SDS_P2;PMS_P1;PMS_P2;Temp;Humidity;BMP_temperature;BMP_pressure;BME280_temperature;BME280_humidity;BME280_pressure;Samples;Min_cycle;Max_cycle;Signal;HPM_P1;HPM_P2
2020/12/12 00:00:37;;;;;;;92.75;31.90;;;0.70;99.90;;;;;;20947598;28;20095;-79
2020/12/12 00:10:38;;;;;;;94.63;31.25;;;0.70;99.90;;;;;;20966174;28;20130;-80
2020/12/12 00:20:38;;;;;;;92.05;30.48;;;0.70;99.90;;;;;;20890361;28;20040;-80
2020/12/12 00:30:39;;;;;;;96.35;33.05;;;0.70;99.90;;;;;;20880950;28;20026;-79
2020/12/12 00:40:40;;;;;;;78.15;29.58;;;0.80;99.90;;;;;;20975390;28;20063;-79
2020/12/12 00:50:48;;;;;;;86.97;29.42;;;0.80;99.90;;;;;;20980711;28;20029;-80
2020/12/12 01:00:49;;;;;;;78.00;28.45;;;0.80;99.90;;;;;;20910917;28;20025;-80
2020/12/12 01:10:51;;;;;;;77.88;29.23;;;0.80;99.90;;;;;;20990592;28;20059;-79
2020/12/12 01:20:52;;;;;;;79.43;29.38;;;0.80;99.90;;;;;;20996833;28;20036;-79
2020/12/12 01:30:53;;;;;;;80.00;29.60;;;0.80;99.90;;;;;;20994966;28;20036;-80
2020/12/12 01:40:55;;;;;;;77.72;30.88;;;0.80;99.90;;;;;;20994363;28;20124;-79
2020/12/12 01:50:57;;;;;;;78.72;30.10;;;0.90;99.90;;;;;;20973181;28;20025;-80
2020/12/12 02:00:59;;;;;;;91.15;33.80;;;0.90;99.90;;;;;;20985094;28;20124;-80
2020/12/12 02:11:02;;;;;;;84.72;31.70;;;0.90;99.90;;;;;;20985857;28;20028;-79
2020/12/12 02:21:03;;;;;;;84.00;29.48;;;1.00;99.90;;;;;;20976052;28;20059;-80
2020/12/12 02:31:04;;;;;;;78.78;30.17;;;1.00;99.90;;;;;;20987199;28;20064;-79
2020/12/12 02:41:08;;;;;;;78.28;30.98;;;1.00;99.90;;;;;;20986971;28;20032;-80
2020/12/12 02:51:09;;;;;;;85.22;32.40;;;1.00;99.90;;;;;;20947447;28;20034;-79
2020/12/12 03:01:10;;;;;;;89.43;32.58;;;1.00;99.90;;;;;;20907048;28;20020;-80
2020/12/12 03:11:11;;;;;;;82.75;30.10;;;1.10;99.90;;;;;;20906447;28;20034;-80
2020/12/12 03:21:12;;;;;;;72.43;29.35;;;1.10;99.90;;;;;;20907013;28;20039;-80
2020/12/12 03:31:13;;;;;;;68.10;27.92;;;1.20;99.90;;;;;;20904800;28;20029;-80
2020/12/12 03:41:14;;;;;;;65.00;27.10;;;1.20;99.90;;;;;;20877932;28;20084;-79
2020/12/12 03:51:14;;;;;;;57.22;23.70;;;1.20;99.90;;;;;;20830734;28;20057;-79
2020/12/12 04:01:15;;;;;;;;;;;1.20;99.90;;;;;;20834801;28;20167;-78
2020/12/12 04:11:16;;;;;;;57.73;23.90;;;1.20;99.90;;;;;;20844954;28;19912;-79
2020/12/12 04:21:17;;;;;;;63.25;26.20;;;1.30;99.90;;;;;;20846160;28;20284;-78
2020/12/12 04:31:18;;;;;;;63.88;26.52;;;1.20;99.90;;;;;;20844157;28;20120;-79
2020/12/12 04:41:19;;;;;;;70.20;28.02;;;1.20;99.90;;;;;;20841619;28;20124;-79
2020/12/12 04:51:20;;;;;;;83.95;29.13;;;1.30;99.90;;;;;;20841955;28;20061;-79
2020/12/12 05:01:21;;;;;;;66.85;26.83;;;1.50;99.90;;;;;;20846246;28;20392;-78
2020/12/12 05:11:25;;;;;;;73.05;26.30;;;1.50;99.90;;;;;;20842985;28;20044;-79
2020/12/12 05:21:25;;;;;;;79.25;27.17;;;1.50;99.90;;;;;;20846313;28;20021;-79
2020/12/12 05:31:27;;;;;;;63.38;24.98;;;1.60;99.90;;;;;;20837679;28;20028;-79
2020/12/12 05:41:28;;;;;;;59.13;21.77;;;1.70;99.90;;;;;;20862852;28;20279;-79
2020/12/12 05:51:30;;;;;;;;;;;1.70;99.90;;;;;;20858766;28;20038;-79
2020/12/12 06:01:35;;;;;;;48.03;17.43;;;1.70;99.90;;;;;;20839001;28;19916;-78
2020/12/12 06:11:41;;;;;;;37.97;16.33;;;1.80;99.90;;;;;;20837433;28;20405;-79
2020/12/12 06:21:43;;;;;;;30.40;13.57;;;1.80;99.90;;;;;;20835543;28;20029;-79
2020/12/12 06:31:44;;;;;;;34.55;14.50;;;1.80;99.90;;;;;;20834818;28;20087;-80
2020/12/12 06:41:47;;;;;;;32.05;16.10;;;1.70;99.90;;;;;;20834682;28;20037;-79
2020/12/12 06:51:50;;;;;;;28.23;12.15;;;1.60;99.90;;;;;;20837987;28;20120;-79
2020/12/12 07:01:55;;;;;;;28.02;12.05;;;1.70;99.90;;;;;;20838979;28;20036;-78
2020/12/12 07:11:57;;;;;;;28.58;12.90;;;1.70;99.90;;;;;;20832482;28;20033;-79
2020/12/12 07:21:59;;;;;;;27.58;11.98;;;1.90;99.90;;;;;;20829613;28;20044;-78
2020/12/12 07:32:00;;;;;;;22.38;10.32;;;1.90;99.90;;;;;;20823323;28;20072;-75
2020/12/12 07:42:03;;;;;;;19.20;9.65;;;2.90;99.90;;;;;;20846490;28;20178;-78
2020/12/12 07:52:11;;;;;;;20.25;9.73;;;2.50;99.90;;;;;;20844029;28;20038;-78
2020/12/12 08:02:13;;;;;;;20.65;9.43;;;2.30;99.90;;;;;;20840146;28;20034;-77
2020/12/12 08:12:35;;;;;;;23.75;11.38;;;2.30;99.90;;;;;;20838705;28;20030;-78
2020/12/12 08:22:37;;;;;;;36.23;15.13;;;2.30;99.90;;;;;;20912222;28;20040;-78
2020/12/12 08:32:47;;;;;;;28.35;13.68;;;2.50;99.90;;;;;;20918841;28;20494;-78
2020/12/12 08:43:20;;;;;;;22.02;11.75;;;2.80;99.90;;;;;;20918971;28;20041;-76
2020/12/12 08:53:27;;;;;;;28.02;13.25;;;2.80;99.90;;;;;;20894833;28;20114;-77
2020/12/12 09:03:28;;;;;;;35.88;15.77;;;2.80;99.90;;;;;;20915896;28;20029;-77
2020/12/12 09:13:29;;;;;;;30.58;15.80;;;3.10;99.90;;;;;;20898434;28;20075;-77
2020/12/12 09:23:29;;;;;;;28.03;14.03;;;3.40;99.90;;;;;;20916669;28;20025;-78
2020/12/12 09:33:30;;;;;;;29.03;15.47;;;3.40;99.90;;;;;;20920629;28;20044;-78
2020/12/12 09:43:31;;;;;;;30.30;15.53;;;3.60;99.90;;;;;;20920473;28;20033;-79
2020/12/12 09:53:32;;;;;;;32.50;16.17;;;3.70;99.90;;;;;;20918865;28;20029;-79
2020/12/12 10:03:33;;;;;;;33.07;16.57;;;3.70;99.90;;;;;;20927497;28;20491;-78
2020/12/12 10:13:34;;;;;;;30.33;15.43;;;3.70;99.90;;;;;;20921990;28;20068;-78
2020/12/12 10:23:35;;;;;;;29.77;15.57;;;3.80;99.90;;;;;;20952662;28;20025;-78
2020/12/12 10:33:36;;;;;;;29.27;14.60;;;3.90;99.90;;;;;;20936780;28;20036;-78
2020/12/12 10:43:38;;;;;;;31.88;14.70;;;3.90;99.90;;;;;;20905137;28;20483;-79
2020/12/12 10:53:39;;;;;;;35.80;17.02;;;4.00;99.90;;;;;;20918885;28;20025;-79
2020/12/12 11:03:42;;;;;;;31.30;15.77;;;4.10;99.90;;;;;;20920659;28;20033;-79
2020/12/12 11:13:43;;;;;;;33.22;16.63;;;4.20;99.90;;;;;;20932147;28;20032;-79
2020/12/12 11:23:44;;;;;;;37.67;17.67;;;4.20;99.90;;;;;;20942626;28;20395;-79
2020/12/12 11:33:48;;;;;;;28.00;13.93;;;4.30;99.90;;;;;;20945536;28;20037;-79
2020/12/12 11:54:08;;;;;;;11.13;6.38;;;4.50;99.90;;;;;;20954114;28;20032;-79
2020/12/12 12:04:10;;;;;;;21.05;10.57;;;4.50;99.90;;;;;;20927976;28;20053;-79
2020/12/12 12:14:11;;;;;;;31.70;16.43;;;4.60;99.90;;;;;;20948945;28;20036;-78
2020/12/12 12:24:15;;;;;;;39.80;20.00;;;4.60;99.90;;;;;;20937288;28;20024;-79
2020/12/12 12:34:19;;;;;;;32.78;17.08;;;5.20;99.90;;;;;;20912628;28;20057;-77
2020/12/12 12:44:20;;;;;;;30.77;15.68;;;5.50;99.90;;;;;;20917257;28;20036;-77
2020/12/12 12:54:21;;;;;;;24.23;14.37;;;5.40;99.90;;;;;;20920911;28;20116;-78
2020/12/12 13:04:22;;;;;;;26.23;14.13;;;5.30;99.90;;;;;;20910938;28;20024;-78
2020/12/12 13:14:22;;;;;;;22.30;12.37;;;5.20;99.90;;;;;;20894647;28;20033;-79
2020/12/12 13:24:23;;;;;;;24.73;14.80;;;5.10;99.90;;;;;;20912060;28;20048;-79
2020/12/12 13:34:25;;;;;;;34.90;18.50;;;5.20;99.90;;;;;;20881959;28;20060;-77
2020/12/12 13:44:29;;;;;;;35.42;18.50;;;5.20;99.90;;;;;;20887282;28;20586;-79
2020/12/12 13:54:31;;;;;;;34.28;19.23;;;5.30;99.90;;;;;;20900005;28;20061;-78
2020/12/12 14:04:31;;;;;;;31.15;17.75;;;5.20;99.90;;;;;;20903289;28;20025;-78
2020/12/12 14:24:57;;;;;;;28.10;15.37;;;5.00;99.90;;;;;;20913530;28;20491;-78
2020/12/12 14:34:58;;;;;;;31.95;14.75;;;5.00;99.90;;;;;;20902724;28;20038;-78
2020/12/12 14:44:59;;;;;;;28.23;13.47;;;4.80;99.90;;;;;;20895976;28;20499;-76
2020/12/12 14:55:02;;;;;;;27.67;13.70;;;4.80;99.90;;;;;;20928888;28;20051;-77
2020/12/12 15:05:04;;;;;;;18.65;9.70;;;5.00;99.90;;;;;;20911441;28;20157;-77
2020/12/12 15:15:07;;;;;;;13.98;8.13;;;5.00;99.90;;;;;;20889431;28;20052;-77
2020/12/12 15:25:08;;;;;;;15.77;8.32;;;4.90;99.90;;;;;;20869349;28;20025;-77
2020/12/12 15:35:09;;;;;;;16.80;9.77;;;4.90;99.90;;;;;;20890840;28;20037;-78
2020/12/12 15:45:10;;;;;;;18.40;10.57;;;5.10;99.90;;;;;;20887281;28;20583;-78
2020/12/12 15:55:11;;;;;;;26.43;12.17;;;5.00;99.90;;;;;;20889229;28;20499;-78
2020/12/12 16:05:13;;;;;;;15.37;9.20;;;4.90;99.90;;;;;;20901110;28;20037;-77
2020/12/12 16:15:15;;;;;;;35.78;18.63;;;4.70;99.90;;;;;;20861055;28;20025;-78
2020/12/12 16:25:17;;;;;;;17.83;9.90;;;4.80;99.90;;;;;;20895029;28;20029;-78
2020/12/12 16:35:18;;;;;;;17.17;10.15;;;4.70;99.90;;;;;;20903852;28;20440;-78
2020/12/12 16:45:20;;;;;;;23.67;12.27;;;4.60;99.90;;;;;;20890912;28;20090;-78
2020/12/12 16:55:21;;;;;;;25.10;13.60;;;4.60;99.90;;;;;;20947886;28;20054;-77
2020/12/12 17:05:22;;;;;;;30.08;14.30;;;4.50;99.90;;;;;;20911960;28;20047;-77
2020/12/12 17:15:23;;;;;;;22.90;12.47;;;4.20;99.90;;;;;;20899785;28;20029;-77
2020/12/12 17:25:26;;;;;;;25.45;12.25;;;4.40;99.90;;;;;;20879496;28;20041;-75
2020/12/12 17:35:27;;;;;;;45.92;21.38;;;4.50;99.90;;;;;;20908518;28;20033;-78
2020/12/12 17:45:28;;;;;;;38.23;20.30;;;4.60;99.90;;;;;;20902509;28;20082;-77
2020/12/12 17:55:32;;;;;;;27.47;16.53;;;4.60;99.90;;;;;;20893612;28;20055;-77
2020/12/12 18:05:33;;;;;;;53.20;23.17;;;4.50;99.90;;;;;;20920775;28;20039;-77
2020/12/12 18:15:33;;;;;;;32.90;16.97;;;4.60;99.90;;;;;;20886461;28;20030;-77
2020/12/12 18:25:34;;;;;;;26.20;13.80;;;4.50;99.90;;;;;;20870675;28;20068;-77
2020/12/12 18:35:35;;;;;;;37.33;18.80;;;4.40;99.90;;;;;;20881059;28;20579;-77
2020/12/12 18:45:38;;;;;;;42.78;20.67;;;4.40;99.90;;;;;;20890341;28;20503;-78
2020/12/12 18:55:39;;;;;;;34.42;16.88;;;4.50;99.90;;;;;;20890024;28;20032;-78
2020/12/12 19:05:39;;;;;;;29.73;16.47;;;4.60;99.90;;;;;;20882163;28;20033;-77
2020/12/12 19:15:40;;;;;;;35.23;16.80;;;4.60;99.90;;;;;;20865339;28;20032;-78
2020/12/12 19:25:41;;;;;;;27.87;14.27;;;4.40;99.90;;;;;;20883598;28;20039;-77
2020/12/12 19:35:42;;;;;;;75.90;23.00;;;4.40;99.90;;;;;;20899327;28;20041;-77
2020/12/12 19:45:43;;;;;;;49.03;25.67;;;4.60;99.90;;;;;;20887343;28;20037;-77
2020/12/12 19:55:44;;;;;;;24.30;13.17;;;4.50;99.90;;;;;;20905026;28;20499;-78
2020/12/12 20:05:45;;;;;;;14.87;6.93;;;4.40;99.90;;;;;;20900718;28;20174;-78
2020/12/12 20:15:47;;;;;;;13.00;7.13;;;4.40;99.90;;;;;;20900762;28;20033;-78
2020/12/12 20:25:49;;;;;;;17.73;9.48;;;4.40;99.90;;;;;;20903634;28;20059;-77
2020/12/12 20:35:50;;;;;;;18.67;9.90;;;4.30;99.90;;;;;;20902929;28;20131;-78
2020/12/12 20:45:51;;;;;;;29.37;11.40;;;4.40;99.90;;;;;;20901248;28;20047;-78
2020/12/12 20:55:52;;;;;;;14.83;7.90;;;4.50;99.90;;;;;;20903832;28;20112;-79
2020/12/12 21:05:52;;;;;;;20.63;11.63;;;5.20;99.90;;;;;;20900478;28;20036;-79
2020/12/12 21:15:54;;;;;;;23.10;11.43;;;4.70;99.90;;;;;;20900108;28;20079;-79
2020/12/12 21:25:55;;;;;;;18.52;10.65;;;4.80;99.90;;;;;;20899614;28;20495;-79
2020/12/12 21:35:55;;;;;;;16.83;9.93;;;4.90;99.90;;;;;;20896224;28;20060;-78
2020/12/12 21:45:56;;;;;;;25.30;12.20;;;4.80;99.90;;;;;;20916586;28;20033;-77
2020/12/12 21:55:57;;;;;;;23.03;13.10;;;4.70;99.90;;;;;;20903317;28;20090;-79
2020/12/12 22:05:59;;;;;;;25.73;12.57;;;4.90;99.90;;;;;;20923088;28;20025;-79
2020/12/12 22:16:00;;;;;;;29.15;14.77;;;4.80;99.90;;;;;;20954416;28;20040;-78
2020/12/12 22:26:01;;;;;;;26.77;13.70;;;4.80;99.90;;;;;;20951486;28;20127;-77
2020/12/12 22:36:02;;;;;;;26.40;13.70;;;4.70;99.90;;;;;;20896003;28;20461;-78
2020/12/12 22:46:03;;;;;;;29.57;14.10;;;4.50;99.90;;;;;;20925985;28;20036;-79
2020/12/12 22:56:03;;;;;;;25.53;12.87;;;4.40;99.90;;;;;;20941857;28;20417;-79
2020/12/12 23:06:05;;;;;;;25.73;14.83;;;4.50;99.90;;;;;;20924128;28;20115;-78
2020/12/12 23:16:05;;;;;;;31.17;15.57;;;4.60;99.90;;;;;;20940266;28;20093;-79
2020/12/12 23:26:06;;;;;;;30.03;15.43;;;4.70;99.90;;;;;;20941740;28;20060;-80
2020/12/12 23:36:07;;;;;;;28.77;14.97;;;4.70;99.90;;;;;;20932902;28;20326;-81
2020/12/12 23:46:11;;;;;;;26.83;14.40;;;4.70;99.90;;;;;;20922383;28;20108;-80
2020/12/12 23:56:13;;;;;;;27.60;14.65;;;4.70;99.90;;;;;;20917632;28;20480;-80
